Time;durP1;ratioP1;P1;durP2;ratioP2;P2;SDS_P1;SDS_P2;PMS_P1;PMS_P2;Temp;Humidity;BMP_temperature;BMP_pressure;BME280_temperature;BME280_humidity;BME280_pressure;Samples;Min_cycle;Max_cycle;Signal;HPM_P1;HPM_P2
2021/08/04 00:00:34;;;;;;;3.05;1.70;;;;;;;15.83;69.50;100417.28;4906551;28;99597;-68
2021/08/04 00:03:00;;;;;;;2.28;1.58;;;;;;;15.83;69.68;100417.28;4903421;28;104034;-68
2021/08/04 00:05:26;;;;;;;3.45;1.80;;;;;;;15.87;69.25;100414.78;4906208;28;119293;-66
2021/08/04 00:07:53;;;;;;;4.25;2.03;;;;;;;15.87;69.62;100412.88;4906242;28;99954;-68
2021/08/04 00:10:21;;;;;;;2.88;2.05;;;;;;;15.87;69.44;100415.59;4906088;28;98387;-66
2021/08/04 00:12:48;;;;;;;4.00;1.92;;;;;;;15.85;69.21;100414.28;4906688;28;98437;-66
2021/08/04 00:15:15;;;;;;;3.95;2.10;;;;;;;15.82;69.30;100420.34;4903740;28;117858;-69
2021/08/04 00:17:41;;;;;;;2.65;1.83;;;;;;;15.76;69.52;100416.09;4905802;28;117270;-69
2021/08/04 00:20:08;;;;;;;2.38;2.08;;;;;;;15.69;69.45;100417.31;4904843;28;98034;-69
2021/08/04 00:22:34;;;;;;;3.15;2.00;;;;;;;15.62;69.59;100416.88;4906413;28;110207;-66
2021/08/04 00:25:00;;;;;;;3.30;1.70;;;;;;;15.59;69.97;100406.63;4903657;28;98109;-69
2021/08/04 00:27:27;;;;;;;2.13;1.58;;;;;;;15.57;69.86;100403.41;4888896;28;98517;-66
2021/08/04 00:29:55;;;;;;;2.40;1.92;;;;;;;15.57;70.25;100406.13;4905820;28;98170;-69
2021/08/04 00:32:21;;;;;;;2.40;1.83;;;;;;;15.59;70.09;100403.09;4906379;28;115057;-66
2021/08/04 00:34:48;;;;;;;2.83;1.70;;;;;;;15.58;69.89;100405.00;4903725;28;105094;-69
2021/08/04 00:37:14;;;;;;;2.60;1.73;;;;;;;15.59;70.38;100400.38;4899859;28;99015;-66
2021/08/04 00:39:40;;;;;;;2.60;1.63;;;;;;;15.60;70.29;100405.53;4900957;28;97774;-66
2021/08/04 00:42:07;;;;;;;1.83;1.67;;;;;;;15.62;70.06;100408.72;4902399;28;122870;-67
2021/08/04 00:44:33;;;;;;;3.70;1.70;;;;;;;15.62;70.08;100406.00;4902256;28;111596;-68
2021/08/04 00:46:59;;;;;;;3.45;1.40;;;;;;;15.64;70.12;100400.25;4902472;28;116378;-69
2021/08/04 00:49:25;;;;;;;3.15;1.83;;;;;;;15.65;70.18;100408.16;4899588;28;128473;-66
2021/08/04 00:51:51;;;;;;;3.33;1.83;;;;;;;15.67;70.40;100405.13;4899863;28;122467;-66
2021/08/04 00:54:17;;;;;;;5.65;1.90;;;;;;;15.66;70.62;100404.34;4901507;28;98310;-66
2021/08/04 00:56:43;;;;;;;2.75;1.73;;;;;;;15.67;70.36;100408.66;4901095;28;104706;-69
2021/08/04 00:59:12;;;;;;;2.97;1.90;;;;;;;15.66;70.38;100406.25;4902814;28;98333;-69
2021/08/04 01:02:10;;;;;;;2.85;2.10;;;;;;;15.65;70.30;100407.38;4869030;28;98049;-69
2021/08/04 01:04:47;;;;;;;3.05;2.28;;;;;;;15.63;70.22;100409.53;4900960;28;98989;-66
2021/08/04 01:07:28;;;;;;;2.30;1.90;;;;;;;15.64;70.59;100402.97;4885712;28;99740;-69
2021/08/04 01:10:08;;;;;;;2.33;2.05;;;;;;;15.63;70.65;100414.97;4902182;28;98385;-69
2021/08/04 01:12:58;;;;;;;3.90;2.25;;;;;;;15.60;70.55;100404.69;4887105;28;97939;-69
2021/08/04 01:15:25;;;;;;;3.10;1.90;;;;;;;15.58;70.56;100415.88;4901711;28;99006;-66
2021/08/04 01:17:51;;;;;;;4.72;2.40;;;;;;;15.56;70.89;100411.84;4883802;28;125263;-69
2021/08/04 01:20:24;;;;;;;4.30;2.28;;;;;;;15.53;70.72;100412.47;4899459;28;127309;-66
2021/08/04 01:23:24;;;;;;;2.35;1.90;;;;;;;15.47;70.22;100412.53;4885012;28;97782;-69
2021/08/04 01:26:19;;;;;;;2.88;2.15;;;;;;;15.45;70.47;100409.34;4887376;28;98971;-69
2021/08/04 01:28:49;;;;;;;3.25;2.78;;;;;;;15.36;70.38;100397.53;4899654;28;98741;-69
2021/08/04 01:31:21;;;;;;;3.40;2.50;;;;;;;15.32;70.72;100412.03;4891182;28;127938;-69
2021/08/04 01:33:49;;;;;;;2.30;2.10;;;;;;;15.31;70.78;100410.44;4867044;28;97923;-66
2021/08/04 01:36:15;;;;;;;3.47;2.38;;;;;;;15.31;71.27;100405.78;4895101;28;98861;-69
2021/08/04 01:38:41;;;;;;;4.70;2.50;;;;;;;15.31;70.95;100405.78;4881680;28;127224;-66
2021/08/04 01:41:08;;;;;;;3.70;2.30;;;;;;;15.33;71.16;100411.75;4883538;28;98291;-66
2021/08/04 01:43:34;;;;;;;3.95;2.35;;;;;;;15.31;70.81;100416.66;4899680;28;99665;-66
2021/08/04 01:46:00;;;;;;;4.35;2.85;;;;;;;15.32;71.25;100417.47;4898282;28;128374;-66
2021/08/04 01:48:27;;;;;;;3.67;2.95;;;;;;;15.32;71.24;100417.47;4898775;28;127853;-69
2021/08/04 01:50:56;;;;;;;4.47;3.00;;;;;;;15.31;70.78;100416.66;4882949;28;106267;-66
2021/08/04 01:53:23;;;;;;;5.03;2.75;;;;;;;15.29;70.63;100418.06;4899880;28;113375;-69
2021/08/04 01:55:49;;;;;;;4.47;2.65;;;;;;;15.28;70.79;100414.53;4883417;28;108752;-66
2021/08/04 01:58:15;;;;;;;4.00;2.78;;;;;;;15.25;70.48;100415.16;4883134;28;128398;-66
2021/08/04 02:00:41;;;;;;;3.47;2.70;;;;;;;15.25;70.60;100404.31;4899644;28;98075;-68
2021/08/04 02:03:07;;;;;;;3.97;2.80;;;;;;;15.23;70.92;100409.22;4902131;28;98186;-66
2021/08/04 02:05:33;;;;;;;3.65;2.92;;;;;;;15.22;70.63;100399.47;4900619;28;127661;-66
2021/08/04 02:08:32;;;;;;;4.03;2.80;;;;;;;15.20;70.69;100405.16;4902562;28;98660;-66
2021/08/04 02:11:03;;;;;;;3.15;2.55;;;;;;;15.21;70.67;100404.09;4883360;28;100224;-69
2021/08/04 02:13:51;;;;;;;4.23;2.30;;;;;;;15.19;70.60;100400.84;4901455;28;98078;-66
2021/08/04 02:16:54;;;;;;;4.00;2.47;;;;;;;15.18;70.29;100398.44;4884827;28;98210;-66
2021/08/04 02:19:31;;;;;;;;;;;;;;;15.14;69.86;100406.38;4901020;28;98532;-66
2021/08/04 02:22:04;;;;;;;3.83;2.42;;;;;;;15.12;70.52;100399.63;4899304;28;118563;-66
2021/08/04 02:24:32;;;;;;;5.85;2.25;;;;;;;15.09;70.80;100398.34;4883397;28;107919;-66
2021/08/04 02:27:00;;;;;;;4.72;2.33;;;;;;;15.09;71.10;100398.34;4899407;28;99025;-66
2021/08/04 02:29:27;;;;;;;4.25;2.70;;;;;;;15.05;70.59;100397.31;4898771;28;98307;-66
2021/08/04 02:31:53;;;;;;;5.30;2.80;;;;;;;15.04;71.06;100403.84;4897666;28;118961;-66
2021/08/04 02:34:19;;;;;;;3.10;2.42;;;;;;;15.04;70.99;100405.75;4915393;28;123395;-69
2021/08/04 02:36:45;;;;;;;3.63;2.33;;;;;;;15.04;70.91;100408.47;4883153;28;98348;-66
2021/08/04 02:39:11;;;;;;;3.88;2.50;;;;;;;15.03;70.71;100413.09;4900355;28;118302;-68
2021/08/04 02:41:37;;;;;;;3.10;2.45;;;;;;;15.00;70.95;100405.53;4898267;28;127522;-66
2021/08/04 02:44:04;;;;;;;4.13;2.40;;;;;;;14.98;71.06;100407.75;4898623;28;123054;-69
2021/08/04 02:46:30;;;;;;;6.53;2.80;;;;;;;14.97;70.94;100409.69;4900817;28;98109;-66
2021/08/04 02:48:57;;;;;;;3.65;2.10;;;;;;;14.93;70.97;100405.13;4900856;28;98800;-68
2021/08/04 02:51:24;;;;;;;5.43;2.40;;;;;;;14.92;70.49;100408.94;4899201;28;98126;-66
2021/08/04 02:53:55;;;;;;;5.00;2.35;;;;;;;14.88;70.45;100405.22;4899395;28;120133;-68
2021/08/04 02:56:21;;;;;;;4.47;2.15;;;;;;;14.91;70.54;100410.03;4894582;28;98016;-66
2021/08/04 02:58:47;;;;;;;3.20;2.20;;;;;;;14.89;70.38;100402.19;4889455;28;98073;-69
2021/08/04 03:01:13;;;;;;;3.05;1.90;;;;;;;14.89;70.50;100396.75;4899260;28;128361;-66
2021/08/04 03:03:39;;;;;;;3.03;2.10;;;;;;;14.90;70.82;100403.03;4900170;28;121260;-68
2021/08/04 03:06:05;;;;;;;3.58;2.08;;;;;;;14.90;70.53;100411.97;4899625;28;125544;-69
2021/08/04 03:08:31;;;;;;;3.72;1.80;;;;;;;14.91;70.95;100407.34;4898256;28;128007;-66
2021/08/04 03:10:57;;;;;;;2.97;1.90;;;;;;;14.90;70.71;100406.53;4882735;28;97896;-69
2021/08/04 03:13:23;;;;;;;3.83;2.10;;;;;;;14.90;70.38;100413.88;4881681;28;122396;-69
2021/08/04 03:15:49;;;;;;;5.40;2.10;;;;;;;14.89;70.69;100412.25;4882207;28;98685;-66
2021/08/04 03:18:16;;;;;;;3.60;1.67;;;;;;;14.88;70.48;100397.06;4899826;28;126165;-68
2021/08/04 03:20:42;;;;;;;3.25;1.95;;;;;;;14.87;70.83;100396.28;4899404;28;128164;-66
2021/08/04 03:23:08;;;;;;;4.07;2.22;;;;;;;14.85;70.53;100394.94;4900871;28;98249;-66
2021/08/04 03:25:34;;;;;;;3.95;2.00;;;;;;;14.84;70.60;100399.56;4896703;28;129017;-69
2021/08/04 03:28:00;;;;;;;3.05;2.10;;;;;;;14.84;70.67;100399.56;4899228;28;128119;-66
2021/08/04 03:30:26;;;;;;;3.33;2.03;;;;;;;14.85;70.96;100401.16;4899149;28;128054;-66
2021/08/04 03:32:52;;;;;;;5.35;2.30;;;;;;;14.87;70.63;100403.59;4897582;28;113623;-68
2021/08/04 03:35:18;;;;;;;2.35;2.08;;;;;;;14.90;70.67;100403.03;4899405;28;128347;-68
2021/08/04 03:37:45;;;;;;;3.22;2.00;;;;;;;14.89;70.91;100402.19;4898744;28;127709;-68
2021/08/04 03:40:12;;;;;;;4.18;2.20;;;;;;;14.89;71.06;100399.47;4900112;28;98956;-69
2021/08/04 03:42:38;;;;;;;3.80;2.00;;;;;;;14.89;71.13;100406.81;4898236;28;98634;-66
2021/08/04 03:45:05;;;;;;;5.43;2.40;;;;;;;14.89;70.71;100402.19;4899079;28;98770;-69
2021/08/04 03:47:31;;;;;;;2.60;1.58;;;;;;;14.90;70.82;100406.53;4866019;28;104323;-66
2021/08/04 03:49:57;;;;;;;3.22;2.03;;;;;;;14.88;70.76;100397.88;4898182;28;98112;-68
2021/08/04 03:52:23;;;;;;;3.53;2.20;;;;;;;14.91;70.75;100407.34;4897699;28;121661;-66
2021/08/04 03:54:50;;;;;;;4.30;2.00;;;;;;;14.91;70.80;100410.03;4899209;28;118128;-66
2021/08/04 03:57:16;;;;;;;2.65;2.15;;;;;;;14.91;70.76;100405.44;4899634;28;98737;-67
2021/08/04 03:59:42;;;;;;;4.10;1.80;;;;;;;14.94;71.06;100410.25;4899035;28;127875;-66
2021/08/04 04:02:08;;;;;;;3.97;2.60;;;;;;;14.96;71.11;100413.47;4897821;28;123134;-69
2021/08/04 04:04:34;;;;;;;3.95;2.40;;;;;;;15.03;71.05;100409.56;4864015;28;127691;-66
2021/08/04 04:07:00;;;;;;;4.85;3.15;;;;;;;15.12;71.21;100410.50;4881120;28;127071;-68
2021/08/04 04:09:27;;;;;;;6.45;5.68;;;;;;;15.21;70.73;100404.09;4897480;28;128210;-68
2021/08/04 04:11:53;;;;;;;8.48;6.80;;;;;;;15.31;69.94;100405.78;4885325;28;98039;-66
2021/08/04 04:14:19;;;;;;;6.53;5.90;;;;;;;15.37;70.52;100401.91;4900713;28;128412;-66
2021/08/04 04:16:45;;;;;;;6.43;5.50;;;;;;;15.45;69.63;100403.09;4902908;28;126815;-68
2021/08/04 04:19:11;;;;;;;7.03;4.70;;;;;;;15.46;70.16;100400.06;4900845;28;121296;-68
2021/08/04 04:21:37;;;;;;;3.13;2.80;;;;;;;15.50;69.78;100407.63;4902924;28;97832;-65
2021/08/04 04:24:03;;;;;;;4.03;2.22;;;;;;;15.52;69.59;100399.97;4900370;28;128485;-66
2021/08/04 04:26:30;;;;;;;3.47;2.22;;;;;;;15.50;69.74;100404.91;4900952;28;113050;-68
2021/08/04 04:28:56;;;;;;;4.70;2.13;;;;;;;15.47;69.48;100409.03;4903239;28;98005;-68
2021/08/04 04:31:22;;;;;;;3.38;2.60;;;;;;;15.47;69.88;100407.13;4902741;28;97939;-68
2021/08/04 04:33:48;;;;;;;7.80;4.30;;;;;;;15.45;69.72;100405.81;4901791;28;117411;-69
2021/08/04 04:36:14;;;;;;;3.97;3.53;;;;;;;15.46;70.22;100410.94;4901915;28;127754;-66
2021/08/04 04:38:41;;;;;;;4.80;4.40;;;;;;;15.50;70.02;100411.16;4900707;28;122566;-66
2021/08/04 04:41:07;;;;;;;6.10;4.03;;;;;;;15.53;69.91;100415.19;4902790;28;98500;-66
2021/08/04 04:43:33;;;;;;;3.50;3.20;;;;;;;15.53;69.24;100415.19;4887564;28;125868;-69
2021/08/04 04:45:59;;;;;;;3.63;3.17;;;;;;;15.52;69.37;100411.63;4902095;28;98667;-66
2021/08/04 04:48:25;;;;;;;3.30;2.67;;;;;;;15.53;69.69;100424.13;4883890;28;127194;-68
2021/08/04 04:50:52;;;;;;;3.80;2.60;;;;;;;15.64;69.55;100419.28;4900297;28;121807;-66
2021/08/04 04:53:18;;;;;;;3.60;2.20;;;;;;;15.76;69.28;100425.06;4899532;28;127070;-69
2021/08/04 04:55:44;;;;;;;3.42;2.30;;;;;;;15.89;69.34;100420.72;4916450;28;98424;-69
2021/08/04 04:58:10;;;;;;;3.28;2.20;;;;;;;16.02;68.68;100422.63;4902074;28;127614;-69
2021/08/04 05:00:36;;;;;;;3.90;2.65;;;;;;;16.14;68.34;100422.09;4899700;28;121935;-69
2021/08/04 05:03:02;;;;;;;2.85;2.08;;;;;;;16.17;68.15;100430.44;4900374;28;123355;-66
2021/08/04 05:05:28;;;;;;;3.47;2.40;;;;;;;16.17;67.99;100443.25;4884120;28;113446;-69
2021/08/04 05:07:54;;;;;;;2.70;2.00;;;;;;;16.21;68.08;100449.69;4902469;28;116210;-69
2021/08/04 05:10:20;;;;;;;4.20;1.90;;;;;;;16.27;67.96;100445.75;4900583;28;122212;-66
2021/08/04 05:12:46;;;;;;;3.10;2.10;;;;;;;16.33;68.27;100451.88;4902903;28;98247;-66
2021/08/04 05:15:13;;;;;;;4.18;2.08;;;;;;;16.39;68.11;100451.47;4901043;28;120015;-68
2021/08/04 05:17:39;;;;;;;4.25;2.20;;;;;;;16.45;67.74;100454.84;4902871;28;98067;-69
2021/08/04 05:20:06;;;;;;;5.38;2.28;;;;;;;16.50;67.41;100448.50;4900926;28;123191;-66
2021/08/04 05:22:32;;;;;;;3.42;1.98;;;;;;;16.57;67.32;100449.69;4900998;28;115486;-68
2021/08/04 05:24:58;;;;;;;3.97;2.13;;;;;;;16.64;67.44;100457.44;4901438;28;114325;-66
2021/08/04 05:27:24;;;;;;;4.18;2.33;;;;;;;16.63;67.23;100453.91;4902138;28;97967;-66
2021/08/04 05:29:50;;;;;;;2.97;2.20;;;;;;;16.62;67.75;100452.31;4900527;28;121982;-66
2021/08/04 05:32:16;;;;;;;3.15;2.17;;;;;;;16.65;67.71;100450.88;4899547;28;127344;-68
2021/08/04 05:34:42;;;;;;;2.75;2.08;;;;;;;16.71;67.67;100452.38;4900409;28;98738;-66
2021/08/04 05:37:08;;;;;;;2.85;2.30;;;;;;;16.74;67.47;100449.06;4882856;28;127908;-69
2021/08/04 05:39:34;;;;;;;3.83;2.17;;;;;;;16.78;67.80;100455.50;4916144;28;118986;-68
2021/08/04 05:42:01;;;;;;;6.90;2.30;;;;;;;16.80;67.77;100439.66;4901209;28;127272;-66
2021/08/04 05:44:27;;;;;;;3.67;2.40;;;;;;;16.84;67.74;100448.81;4899182;28;127991;-66
2021/08/04 05:46:53;;;;;;;2.92;2.00;;;;;;;16.82;67.65;100453.75;4900969;28;126361;-66
2021/08/04 05:49:19;;;;;;;4.03;2.40;;;;;;;16.84;67.44;100453.44;4902336;28;97624;-68
2021/08/04 05:51:45;;;;;;;3.20;2.20;;;;;;;16.90;67.38;100446.78;4900638;28;128145;-66
2021/08/04 05:54:11;;;;;;;2.90;1.98;;;;;;;16.99;67.46;100450.34;4899795;28;101062;-68
2021/08/04 05:56:37;;;;;;;8.10;2.50;;;;;;;17.11;67.43;100449.78;4908018;28;124860;-68
2021/08/04 05:59:04;;;;;;;4.20;2.13;;;;;;;17.28;67.02;100458.03;4882597;28;97683;-68
2021/08/04 06:01:30;;;;;;;2.75;2.50;;;;;;;17.48;66.07;100453.16;4881183;28;126800;-66
2021/08/04 06:03:56;;;;;;;3.47;2.15;;;;;;;17.64;65.84;100459.81;4889026;28;126610;-66
2021/08/04 06:06:22;;;;;;;4.50;2.00;;;;;;;17.80;65.85;100457.50;4914738;28;126442;-66
2021/08/04 06:08:48;;;;;;;5.95;2.42;;;;;;;17.93;65.73;100462.03;4883197;28;97911;-68
2021/08/04 06:11:14;;;;;;;2.33;2.03;;;;;;;18.00;65.31;100465.13;4900117;28;126017;-68
2021/08/04 06:13:40;;;;;;;2.88;2.28;;;;;;;18.06;65.04;100466.56;4902093;28;111398;-66
2021/08/04 06:16:06;;;;;;;3.90;2.00;;;;;;;18.04;65.33;100462.56;4902317;28;116053;-68
2021/08/04 06:18:32;;;;;;;2.80;1.85;;;;;;;18.06;65.08;100473.94;4900314;28;122004;-66
2021/08/04 06:20:58;;;;;;;2.90;2.30;;;;;;;18.15;64.49;100469.31;4931164;28;128162;-66
2021/08/04 06:23:24;;;;;;;2.92;2.10;;;;;;;18.28;64.10;100467.59;4901425;28;99987;-66
2021/08/04 06:25:50;;;;;;;4.18;2.00;;;;;;;18.40;64.53;100474.00;4897732;28;127661;-69
2021/08/04 06:28:16;;;;;;;3.22;1.88;;;;;;;18.58;63.62;100476.75;4901397;28;101298;-69
2021/08/04 06:30:42;;;;;;;2.92;2.25;;;;;;;18.80;63.10;100479.34;4900193;28;98053;-66
2021/08/04 06:33:08;;;;;;;3.53;2.10;;;;;;;19.07;62.69;100480.94;4896348;28;126995;-66
2021/08/04 06:35:36;;;;;;;3.35;2.20;;;;;;;19.28;62.40;100488.44;4897332;28;127744;-69
2021/08/04 06:38:02;;;;;;;3.10;2.03;;;;;;;19.40;62.35;100494.03;4899546;28;97960;-66
2021/08/04 06:40:28;;;;;;;3.60;2.40;;;;;;;19.45;62.56;100496.59;4900719;28;127493;-66
2021/08/04 06:42:55;;;;;;;4.40;2.13;;;;;;;19.50;62.77;100487.44;4900839;28;126976;-69
2021/08/04 06:45:21;;;;;;;3.55;1.90;;;;;;;19.60;62.62;100492.53;4900007;28;127593;-69
2021/08/04 06:47:47;;;;;;;2.72;2.10;;;;;;;19.70;62.63;100486.72;4899609;28;97900;-69
2021/08/04 06:50:13;;;;;;;5.00;2.00;;;;;;;19.82;62.50;100489.56;4901488;28;128227;-69
2021/08/04 06:52:39;;;;;;;3.28;1.80;;;;;;;19.95;61.78;100485.00;4900460;28;128286;-69
2021/08/04 06:55:06;;;;;;;4.05;1.90;;;;;;;19.99;61.24;100487.88;4883469;28;98325;-69
2021/08/04 06:57:32;;;;;;;4.10;1.73;;;;;;;19.96;61.07;100491.28;4899933;28;112907;-69
2021/08/04 06:59:58;;;;;;;2.85;1.40;;;;;;;20.02;61.57;100481.75;4881414;28;128593;-66
2021/08/04 07:02:24;;;;;;;2.33;1.27;;;;;;;20.09;61.73;100488.31;4883497;28;104517;-69
2021/08/04 07:04:50;;;;;;;2.70;1.30;;;;;;;20.16;61.51;100484.25;4882818;28;98351;-69
2021/08/04 07:07:16;;;;;;;4.47;1.70;;;;;;;20.23;61.45;100479.84;4901699;28;122536;-66
2021/08/04 07:09:42;;;;;;;2.38;1.23;;;;;;;20.28;61.30;100490.63;4901036;28;120309;-70
2021/08/04 07:12:10;;;;;;;6.70;1.50;;;;;;;20.35;60.96;100488.13;4883161;28;98063;-66
2021/08/04 07:14:37;;;;;;;4.07;1.45;;;;;;;20.43;60.78;100486.47;4882630;28;98154;-66
2021/08/04 07:17:03;;;;;;;1.92;1.15;;;;;;;20.45;60.71;100489.69;4900572;28;97885;-66
2021/08/04 07:19:31;;;;;;;2.47;1.30;;;;;;;20.48;60.50;100491.78;4899943;28;99026;-70
2021/08/04 07:21:56;;;;;;;2.83;1.30;;;;;;;;;;4900665;28;98810;-69
2021/08/04 07:24:22;;;;;;;2.70;1.40;;;;;;;20.63;60.08;100487.66;4899388;28;126966;-69
2021/08/04 07:26:49;;;;;;;2.97;1.05;;;;;;;20.75;60.25;100487.72;4900314;28;104360;-69
2021/08/04 07:29:15;;;;;;;2.88;2.10;;;;;;;20.88;60.09;100491.31;4898200;28;119036;-67
2021/08/04 07:31:41;;;;;;;2.65;1.80;;;;;;;21.02;59.25;100489.06;4881499;28;125245;-69
2021/08/04 07:34:08;;;;;;;1.92;1.67;;;;;;;21.16;59.47;100483.31;4878214;28;105753;-69
2021/08/04 07:36:35;;;;;;;4.07;1.90;;;;;;;21.33;59.35;100482.34;4911161;28;98006;-66
2021/08/04 07:39:02;;;;;;;3.75;1.95;;;;;;;21.47;59.10;100484.78;4884922;28;98379;-66
2021/08/04 07:41:28;;;;;;;3.10;1.38;;;;;;;21.55;58.26;100487.44;4901156;28;98874;-69
2021/08/04 07:43:54;;;;;;;1.33;1.10;;;;;;;21.70;58.84;100487.91;4900127;28;98452;-67
2021/08/04 07:46:22;;;;;;;3.95;1.13;;;;;;;21.87;57.18;100487.69;4901951;28;98026;-69
2021/08/04 07:48:48;;;;;;;2.28;1.00;;;;;;;22.03;57.00;100491.34;4903795;28;98139;-69
2021/08/04 07:51:15;;;;;;;2.40;1.00;;;;;;;22.19;56.70;100488.72;4884107;28;127486;-69
2021/08/04 07:53:41;;;;;;;4.40;1.20;;;;;;;22.35;56.67;100491.56;4903873;28;97736;-67
2021/08/04 07:56:08;;;;;;;2.05;0.98;;;;;;;22.72;55.46;100480.50;4901728;28;98114;-67
2021/08/04 07:58:34;;;;;;;3.08;1.08;;;;;;;23.20;55.58;100496.00;4902888;28;123246;-69
2021/08/04 08:01:00;;;;;;;1.90;1.00;;;;;;;23.47;54.15;100488.84;4902517;28;128056;-69
2021/08/04 08:03:26;;;;;;;2.75;1.23;;;;;;;23.65;53.63;100489.28;4900878;28;127075;-71
2021/08/04 08:05:52;;;;;;;1.85;0.77;;;;;;;23.74;53.54;100487.22;4902552;28;121218;-67
2021/08/04 08:08:18;;;;;;;1.55;0.80;;;;;;;23.82;53.31;100487.38;4902198;28;126394;-70
2021/08/04 08:10:47;;;;;;;2.40;1.00;;;;;;;23.82;53.17;100503.91;4901789;28;98761;-69
2021/08/04 08:13:13;;;;;;;1.38;0.90;;;;;;;23.73;53.14;100493.03;4902803;28;97815;-67
2021/08/04 08:15:39;;;;;;;1.67;0.95;;;;;;;23.70;52.51;100491.81;4917945;28;98286;-70
2021/08/04 08:18:12;;;;;;;2.30;0.90;;;;;;;23.66;53.45;100496.44;4903253;28;129034;-70
2021/08/04 08:20:40;;;;;;;3.88;0.80;;;;;;;23.61;53.15;100495.84;4900685;28;116083;-67
2021/08/04 08:23:06;;;;;;;2.38;0.88;;;;;;;23.52;53.11;100496.84;4901476;28;97927;-70
2021/08/04 08:25:32;;;;;;;2.92;1.10;;;;;;;23.48;52.97;100495.94;4902949;28;109313;-70
2021/08/04 08:27:59;;;;;;;3.88;1.17;;;;;;;23.52;52.91;100499.59;4885117;28;97987;-67
2021/08/04 08:30:25;;;;;;;2.20;1.00;;;;;;;23.60;52.36;100497.03;4900237;28;98482;-67
2021/08/04 08:32:53;;;;;;;2.67;1.20;;;;;;;23.72;52.34;100497.75;4902954;28;117974;-67
2021/08/04 08:35:19;;;;;;;1.80;0.95;;;;;;;23.90;51.93;100502.91;4902900;28;97853;-69
2021/08/04 08:37:46;;;;;;;1.60;0.98;;;;;;;23.85;52.42;100503.16;4884999;28;98611;-70
2021/08/04 08:40:13;;;;;;;2.33;1.20;;;;;;;23.62;52.51;100490.03;4898839;28;110021;-67
2021/08/04 08:42:42;;;;;;;1.77;0.80;;;;;;;23.43;53.86;100495.41;4903207;28;98039;-67
2021/08/04 08:45:09;;;;;;;3.22;1.17;;;;;;;23.38;53.00;100493.69;4902552;28;97896;-70
2021/08/04 08:47:35;;;;;;;4.30;1.00;;;;;;;23.53;53.27;100495.66;4884329;28;117627;-67
2021/08/04 08:50:02;;;;;;;2.38;1.33;;;;;;;23.43;52.88;100493.47;4900527;28;101665;-67
2021/08/04 08:52:28;;;;;;;2.33;1.27;;;;;;;23.26;53.45;100497.34;4915931;28;107197;-70
2021/08/04 08:54:54;;;;;;;3.22;1.17;;;;;;;23.21;53.43;100502.28;4915700;28;123453;-67
2021/08/04 08:57:20;;;;;;;4.00;1.40;;;;;;;23.36;53.34;100487.78;4882538;28;127635;-67
2021/08/04 08:59:46;;;;;;;6.10;1.30;;;;;;;23.99;52.43;100487.78;4884379;28;98658;-67
2021/08/04 09:02:12;;;;;;;2.75;1.15;;;;;;;24.42;50.52;100493.50;4883649;28;127452;-69
2021/08/04 09:04:39;;;;;;;4.03;1.40;;;;;;;24.77;49.79;100487.16;4903291;28;97720;-67
2021/08/04 09:07:05;;;;;;;4.82;1.38;;;;;;;25.07;49.00;100485.38;4900219;28;98537;-70
2021/08/04 09:09:34;;;;;;;2.78;1.10;;;;;;;25.75;48.53;100472.81;4901064;28;128037;-70
2021/08/04 09:12:07;;;;;;;3.10;1.13;;;;;;;26.63;47.22;100480.03;4901769;28;98093;-70
2021/08/04 09:14:34;;;;;;;2.03;1.30;;;;;;;27.34;44.67;100478.09;4902179;28;98147;-70
2021/08/04 09:17:09;;;;;;;2.15;1.20;;;;;;;27.03;45.64;100481.28;4901511;28;116050;-67
2021/08/04 09:19:55;;;;;;;2.60;1.10;;;;;;;26.79;46.91;100461.28;4900992;28;106939;-67
2021/08/04 09:22:25;;;;;;;1.80;1.10;;;;;;;27.22;46.17;100461.78;4901049;28;126420;-70
2021/08/04 09:24:56;;;;;;;2.65;0.90;;;;;;;27.64;44.85;100463.34;4902241;28;98037;-70
2021/08/04 09:27:49;;;;;;;2.53;0.83;;;;;;;27.93;44.90;100466.34;4900544;28;97923;-70
2021/08/04 09:30:28;;;;;;;2.25;1.05;;;;;;;27.78;44.96;100465.44;4901919;28;98077;-70
2021/08/04 09:33:12;;;;;;;2.28;0.98;;;;;;;27.94;43.88;100457.63;4902380;28;97858;-70
2021/08/04 09:35:49;;;;;;;1.83;1.25;;;;;;;29.19;42.22;100454.66;4901612;28;99002;-70
2021/08/04 09:38:16;;;;;;;1.85;1.10;;;;;;;29.19;40.55;100460.97;4902232;28;98320;-67
2021/08/04 09:40:42;;;;;;;2.92;1.00;;;;;;;29.44;40.21;100463.81;4883724;28;99532;-70
2021/08/04 09:43:08;;;;;;;1.50;0.80;;;;;;;29.91;39.81;100461.81;4901933;28;98181;-67
2021/08/04 09:45:47;;;;;;;3.03;1.30;;;;;;;29.82;40.74;100456.66;4915669;28;112967;-68
2021/08/04 09:48:16;;;;;;;2.05;1.20;;;;;;;29.52;40.70;100454.28;4902071;28;98927;-71
2021/08/04 09:50:53;;;;;;;2.45;0.90;;;;;;;29.16;41.56;100450.69;4902079;28;98198;-68
2021/08/04 09:53:29;;;;;;;2.40;1.02;;;;;;;28.91;40.26;100449.81;4900129;28;98155;-68
2021/08/04 09:56:12;;;;;;;2.97;0.90;;;;;;;28.53;42.22;100452.03;4901982;28;97831;-71
2021/08/04 09:58:49;;;;;;;2.22;0.80;;;;;;;28.21;42.55;100449.88;4901796;28;98615;-68
2021/08/04 10:01:22;;;;;;;2.40;1.00;;;;;;;28.20;42.27;100453.06;4902651;28;115804;-71
2021/08/04 10:03:59;;;;;;;2.08;0.65;;;;;;;28.44;41.97;100441.31;4904947;28;98043;-70
2021/08/04 10:06:25;;;;;;;3.90;0.90;;;;;;;28.62;41.35;100450.50;4898961;28;98111;-71
2021/08/04 10:08:52;;;;;;;3.92;1.20;;;;;;;28.49;41.01;100449.28;4892457;28;99155;-70
2021/08/04 10:11:18;;;;;;;2.35;1.00;;;;;;;28.52;41.83;100445.72;4882212;28;99392;-68
2021/08/04 10:13:44;;;;;;;2.50;0.90;;;;;;;28.82;40.96;100439.88;4880131;28;125916;-71
2021/08/04 10:16:10;;;;;;;1.92;0.90;;;;;;;29.19;39.89;100435.22;4898929;28;122983;-68
2021/08/04 10:18:36;;;;;;;1.90;0.85;;;;;;;28.99;40.47;100437.56;4899270;28;128068;-68
2021/08/04 10:21:11;;;;;;;2.10;0.70;;;;;;;28.94;41.34;100443.47;4866272;28;118416;-71
2021/08/04 10:23:38;;;;;;;2.00;0.80;;;;;;;29.20;40.01;100434.84;4883970;28;98020;-68
2021/08/04 10:26:05;;;;;;;1.40;0.90;;;;;;;29.77;38.08;100437.63;4898565;28;104714;-71
2021/08/04 10:28:31;;;;;;;1.65;0.80;;;;;;;30.74;36.82;100442.94;4899702;28;97793;-70
2021/08/04 10:30:58;;;;;;;2.38;0.90;;;;;;;31.09;37.22;100435.56;4900456;28;98895;-68
2021/08/04 10:33:24;;;;;;;2.67;0.73;;;;;;;31.67;36.07;100439.50;4901747;28;98401;-71
2021/08/04 10:35:58;;;;;;;2.00;0.80;;;;;;;31.99;35.20;100430.84;4901927;28;98157;-70
2021/08/04 10:38:26;;;;;;;1.20;0.82;;;;;;;32.07;34.59;100437.94;4883022;28;100997;-71
2021/08/04 10:41:22;;;;;;;1.60;0.63;;;;;;;32.18;35.12;100435.81;4898824;28;98776;-67
2021/08/04 10:44:02;;;;;;;0.80;0.43;;;;;;;32.04;34.78;100430.41;4900406;28;98564;-67
2021/08/04 10:46:29;;;;;;;1.15;0.50;;;;;;;32.45;33.62;100424.75;4900120;28;102279;-68
2021/08/04 10:49:04;;;;;;;2.00;0.60;;;;;;;32.87;32.73;100424.63;4900656;28;98627;-70
2021/08/04 10:51:43;;;;;;;2.15;0.60;;;;;;;33.34;33.44;100427.50;4900687;28;99090;-67
2021/08/04 10:54:14;;;;;;;1.35;0.70;;;;;;;33.34;33.57;100419.13;4900679;28;98549;-70
2021/08/04 10:56:43;;;;;;;1.90;0.75;;;;;;;33.57;33.65;100429.56;4900993;28;98132;-68
2021/08/04 10:59:09;;;;;;;1.50;0.70;;;;;;;33.95;32.31;100430.81;4900833;28;98826;-70
2021/08/04 11:01:48;;;;;;;1.98;0.70;;;;;;;33.99;32.19;100416.03;4899984;28;99091;-70
2021/08/04 11:04:16;;;;;;;2.38;0.45;;;;;;;34.45;31.57;100406.69;4900305;28;98708;-67
2021/08/04 11:07:13;;;;;;;1.60;0.50;;;;;;;35.39;30.94;100412.53;4898920;28;98338;-70
2021/08/04 11:09:43;;;;;;;2.35;0.60;;;;;;;36.18;28.92;100406.88;4898986;28;98563;-67
2021/08/04 11:12:13;;;;;;;2.47;0.65;;;;;;;35.29;30.69;100396.81;4898686;28;98717;-67
2021/08/04 11:14:58;;;;;;;1.40;0.50;;;;;;;33.72;32.42;100398.13;4900587;28;98105;-70
2021/08/04 11:18:03;;;;;;;1.25;0.50;;;;;;;32.64;33.98;100391.84;4901188;28;97845;-70
2021/08/04 11:20:29;;;;;;;2.20;0.60;;;;;;;31.66;34.48;100396.94;4899172;28;98975;-70
2021/08/04 11:22:55;;;;;;;2.08;0.70;;;;;;;31.86;33.42;100394.38;4900182;28;121313;-70
2021/08/04 11:25:33;;;;;;;1.65;0.50;;;;;;;31.94;33.85;100386.72;4899660;28;98446;-67
2021/08/04 11:27:59;;;;;;;1.58;0.50;;;;;;;31.03;34.15;100377.56;4901184;28;98155;-71